Time;durP1;ratioP1;P1;durP2;ratioP2;P2;SDS_P1;SDS_P2;PMS_P1;PMS_P2;Temp;Humidity;BMP_temperature;BMP_pressure;BME280_temperature;BME280_humidity;BME280_pressure;Samples;Min_cycle;Max_cycle;Signal;HPM_P1;HPM_P2
2021/03/31 00:01:25;;;;;;;9.88;6.47;;;;;;;8.52;44.12;101355.59;5074353;28;20080;-72
2021/03/31 00:03:50;;;;;;;8.45;6.78;;;;;;;8.32;43.88;101368.22;5092733;28;20024;-72
2021/03/31 00:06:16;;;;;;;10.95;7.35;;;;;;;8.74;49.84;101352.28;5092500;28;20393;-71
2021/03/31 00:08:42;;;;;;;10.55;7.80;;;;;;;8.33;45.73;101364.88;5092524;28;20185;-71
2021/03/31 00:11:09;;;;;;;9.77;7.38;;;;;;;8.54;47.50;101357.31;5092214;28;20024;-72
2021/03/31 00:13:34;;;;;;;9.65;7.18;;;;;;;8.35;44.90;101352.19;5074231;28;20118;-71
2021/03/31 00:16:00;;;;;;;10.77;7.22;;;;;;;8.28;45.45;101358.91;5091959;28;20076;-71
2021/03/31 00:18:25;;;;;;;11.32;7.15;;;;;;;8.28;45.71;101356.38;5074017;28;20045;-71
2021/03/31 00:20:52;;;;;;;10.50;7.53;;;;;;;8.65;46.07;101342.13;5092376;28;20023;-71
2021/03/31 00:23:24;;;;;;;10.05;7.05;;;;;;;8.86;47.47;101343.84;5092113;28;20032;-71
2021/03/31 00:25:50;;;;;;;9.00;7.00;;;;;;;8.54;44.30;101343.78;5073876;28;20485;-72
2021/03/31 00:28:16;;;;;;;8.70;6.90;;;;;;;8.15;45.65;101352.09;5074008;28;20028;-71
2021/03/31 00:30:42;;;;;;;10.45;6.88;;;;;;;8.55;46.96;101341.28;5073467;28;20074;-71
2021/03/31 00:33:08;;;;;;;9.18;7.13;;;;;;;8.09;45.75;101351.22;5073671;28;20533;-71
2021/03/31 00:35:34;;;;;;;9.73;7.55;;;;;;;8.02;46.37;101357.09;5092000;28;20558;-72
2021/03/31 00:38:00;;;;;;;10.98;8.27;;;;;;;8.30;47.00;101348.81;5091920;28;20020;-71
2021/03/31 00:40:28;;;;;;;10.98;8.18;;;;;;;8.20;49.46;101350.41;5091753;28;20025;-72
2021/03/31 00:42:54;;;;;;;11.80;7.80;;;;;;;8.69;47.93;101351.44;5091855;28;20054;-71
2021/03/31 00:45:20;;;;;;;11.88;7.75;;;;;;;8.58;47.37;101351.41;5091520;28;20024;-71
2021/03/31 00:47:45;;;;;;;11.23;8.18;;;;;;;7.61;46.84;101347.59;5073615;28;20025;-71
2021/03/31 00:50:15;;;;;;;11.80;8.10;;;;;;;8.60;48.75;101361.53;5073385;28;20020;-71
2021/03/31 00:52:42;;;;;;;12.65;8.77;;;;;;;7.27;50.49;101358.31;5091474;28;20532;-71
2021/03/31 00:55:10;;;;;;;10.93;8.77;;;;;;;7.40;51.58;101359.25;5073653;28;20101;-71
2021/03/31 00:57:37;;;;;;;12.07;9.25;;;;;;;6.55;52.17;101358.50;5091471;28;20036;-71
2021/03/31 01:00:04;;;;;;;13.23;10.00;;;;;;;7.09;53.29;101359.84;5091295;28;20024;-70
2021/03/31 01:02:30;;;;;;;12.25;9.10;;;;;;;7.00;52.58;101356.41;5090209;28;20039;-71
2021/03/31 01:04:55;;;;;;;12.25;8.98;;;;;;;7.54;51.08;101362.72;5073210;28;20020;-71
2021/03/31 01:07:21;;;;;;;12.30;8.57;;;;;;;6.85;50.45;101355.44;5073258;28;20473;-71
2021/03/31 01:09:46;;;;;;;12.68;9.13;;;;;;;7.65;49.90;101349.31;5091300;28;20165;-70
2021/03/31 01:12:30;;;;;;;11.40;9.07;;;;;;;7.09;51.58;101367.44;5091214;28;20169;-71
2021/03/31 01:15:16;;;;;;;13.80;9.05;;;;;;;7.94;50.02;101359.59;5072964;28;20024;-71
2021/03/31 01:17:49;;;;;;;12.52;8.90;;;;;;;7.43;50.32;101354.19;5073198;28;20527;-71
2021/03/31 01:21:12;;;;;;;10.75;8.35;;;;;;;7.50;49.37;101358.47;5073061;28;20086;-71
2021/03/31 01:23:46;;;;;;;10.85;8.77;;;;;;;7.26;48.94;101365.88;5073052;28;20032;-70
2021/03/31 01:26:30;;;;;;;10.25;8.15;;;;;;;7.47;49.19;101356.78;5072213;28;20067;-72
2021/03/31 01:29:27;;;;;;;11.57;9.02;;;;;;;6.87;52.70;101336.09;5091172;28;20055;-72
2021/03/31 01:32:16;;;;;;;11.50;8.52;;;;;;;7.54;51.69;101368.66;5073010;28;20032;-70
2021/03/31 01:34:45;;;;;;;10.75;8.95;;;;;;;8.12;49.95;101369.78;5044742;28;20493;-72
2021/03/31 01:37:34;;;;;;;12.63;9.52;;;;;;;7.71;51.29;101349.34;5073143;28;20020;-72
2021/03/31 01:40:02;;;;;;;12.23;8.95;;;;;;;6.94;51.98;101337.81;5073053;28;20048;-72
2021/03/31 01:42:30;;;;;;;12.32;8.25;;;;;;;7.10;50.17;101354.81;5072779;28;20028;-71
2021/03/31 01:45:01;;;;;;;10.00;7.65;;;;;;;7.78;48.95;101347.69;5072500;28;20024;-70
2021/03/31 01:47:30;;;;;;;9.90;7.75;;;;;;;7.57;49.19;101355.13;5090994;28;20099;-71
2021/03/31 01:49:57;;;;;;;9.85;7.78;;;;;;;7.86;51.29;101356.19;5072637;28;20045;-71
2021/03/31 01:52:23;;;;;;;10.73;7.70;;;;;;;7.77;50.95;101359.50;5090685;28;20028;-72
2021/03/31 01:54:50;;;;;;;11.88;7.95;;;;;;;7.85;50.22;101354.47;5090825;28;20028;-71
2021/03/31 01:57:18;;;;;;;10.85;8.05;;;;;;;8.11;51.19;101352.91;5072840;28;20040;-71
2021/03/31 01:59:46;;;;;;;11.98;8.40;;;;;;;7.87;49.88;101357.84;5072621;28;20028;-71
2021/03/31 02:02:12;;;;;;;11.35;8.15;;;;;;;8.17;51.92;101357.16;5072470;28;20024;-71
2021/03/31 02:04:43;;;;;;;10.13;8.30;;;;;;;8.24;50.62;101339.44;5072589;28;20034;-71
2021/03/31 02:07:10;;;;;;;9.63;8.07;;;;;;;7.49;51.59;101351.72;5090714;28;20079;-71
2021/03/31 02:09:41;;;;;;;15.60;10.90;;;;;;;6.92;52.68;101354.66;5090772;28;20028;-72
2021/03/31 02:12:14;;;;;;;14.13;10.10;;;;;;;7.50;52.14;101363.53;5090581;28;20028;-72
2021/03/31 02:14:42;;;;;;;14.13;10.02;;;;;;;8.07;50.00;101360.47;5072486;28;20042;-72
2021/03/31 02:17:09;;;;;;;13.00;10.35;;;;;;;7.41;53.94;101368.53;5089263;28;20040;-72
2021/03/31 02:19:39;;;;;;;13.15;9.43;;;;;;;7.65;50.38;101358.56;5090471;28;20454;-72
2021/03/31 02:22:07;;;;;;;12.38;9.20;;;;;;;6.67;52.95;101367.88;5072500;28;20394;-72
2021/03/31 02:24:34;;;;;;;14.90;9.35;;;;;;;7.18;54.33;101357.38;5072444;28;20024;-72
2021/03/31 02:27:00;;;;;;;11.88;9.30;;;;;;;7.50;53.23;101368.59;5090458;28;20394;-72
2021/03/31 02:29:26;;;;;;;12.98;9.55;;;;;;;7.17;53.31;101353.19;5090337;28;20040;-72
2021/03/31 02:31:53;;;;;;;11.80;9.50;;;;;;;7.08;53.90;101351.41;5072264;28;20603;-71
2021/03/31 02:34:20;;;;;;;14.32;10.65;;;;;;;6.63;54.00;101361.97;5072464;28;20027;-72
2021/03/31 02:36:46;;;;;;;13.73;10.05;;;;;;;7.29;54.08;101358.34;5072257;28;20030;-71
2021/03/31 02:39:13;;;;;;;14.40;10.55;;;;;;;7.07;53.52;101356.47;5093537;28;20031;-72
2021/03/31 02:41:43;;;;;;;13.55;10.15;;;;;;;7.25;53.22;101357.44;5094257;28;20028;-72
2021/03/31 02:44:09;;;;;;;12.55;10.40;;;;;;;6.60;53.94;101354.34;5092895;28;20031;-72
2021/03/31 02:46:35;;;;;;;14.00;10.52;;;;;;;6.17;54.50;101352.16;5093704;28;20032;-71
2021/03/31 02:49:02;;;;;;;13.93;11.07;;;;;;;6.43;54.57;101339.84;5076092;28;20085;-72
2021/03/31 02:51:33;;;;;;;16.38;12.15;;;;;;;6.23;55.08;101328.66;5094022;28;20456;-72
2021/03/31 02:54:01;;;;;;;13.48;9.98;;;;;;;6.43;55.32;101344.88;5094008;28;20039;-72
2021/03/31 02:56:29;;;;;;;12.43;10.00;;;;;;;6.49;55.08;101337.38;5075938;28;20032;-71
2021/03/31 02:58:55;;;;;;;15.05;9.90;;;;;;;6.56;54.89;101357.66;5075750;28;20542;-71
2021/03/31 03:01:20;;;;;;;11.05;9.25;;;;;;;6.85;53.80;101356.25;5093917;28;20051;-72
2021/03/31 03:03:46;;;;;;;19.30;12.75;;;;;;;5.79;56.43;101356.69;5075753;28;20067;-72
2021/03/31 03:06:11;;;;;;;14.52;11.18;;;;;;;5.25;58.48;101356.72;5075646;28;20123;-71
2021/03/31 03:08:37;;;;;;;14.75;10.65;;;;;;;5.38;57.69;101342.66;5093800;28;20150;-71
2021/03/31 03:11:03;;;;;;;16.13;10.80;;;;;;;5.26;57.56;101358.44;5075635;28;20020;-72
2021/03/31 03:13:31;;;;;;;13.98;10.60;;;;;;;5.48;56.85;101371.38;5075888;28;20148;-73
2021/03/31 03:15:57;;;;;;;14.57;11.40;;;;;;;5.45;57.98;101367.13;5092607;28;20039;-72
2021/03/31 03:18:23;;;;;;;14.07;11.13;;;;;;;5.28;58.09;101361.84;5075595;28;20051;-72
2021/03/31 03:20:50;;;;;;;23.98;15.30;;;;;;;5.43;57.17;101370.47;5093870;28;20504;-72
2021/03/31 03:23:17;;;;;;;21.40;13.80;;;;;;;5.62;56.88;101355.63;5093618;28;20393;-72
2021/03/31 03:25:44;;;;;;;21.52;14.88;;;;;;;5.53;58.33;101384.88;5093453;28;20040;-73
2021/03/31 03:28:10;;;;;;;21.75;13.05;;;;;;;5.78;56.35;101370.16;5093711;28;20463;-72
2021/03/31 03:30:36;;;;;;;20.85;14.10;;;;;;;5.53;57.44;101373.13;5075091;28;20047;-72
2021/03/31 03:33:02;;;;;;;18.05;12.68;;;;;;;5.82;57.14;101376.91;5093342;28;20066;-72
2021/03/31 03:35:29;;;;;;;21.02;13.98;;;;;;;6.18;57.06;101371.53;5093453;28;20032;-72
2021/03/31 03:37:55;;;;;;;20.05;14.38;;;;;;;5.44;58.63;101383.09;5075241;28;20103;-72
2021/03/31 03:40:24;;;;;;;20.05;14.00;;;;;;;5.29;58.54;101382.84;5093330;28;20020;-72
2021/03/31 03:42:51;;;;;;;38.75;24.25;;;;;;;5.87;58.13;101387.97;5091976;28;20032;-72
2021/03/31 03:45:18;;;;;;;83.80;50.72;;;;;;;5.43;59.18;101395.69;5092969;28;20558;-72
2021/03/31 03:47:44;;;;;;;83.20;52.53;;;;;;;5.45;59.88;101384.78;5074945;28;20028;-72
2021/03/31 03:50:12;;;;;;;67.72;43.83;;;;;;;5.60;58.90;101395.13;5092113;28;20501;-71
2021/03/31 03:52:39;;;;;;;46.55;29.25;;;;;;;6.06;58.10;101391.59;5074662;28;20133;-72
2021/03/31 03:55:06;;;;;;;31.88;21.88;;;;;;;6.36;57.73;101394.47;5091896;28;20063;-71
2021/03/31 03:57:31;;;;;;;27.05;19.20;;;;;;;6.05;57.12;101392.41;5092690;28;20524;-70
2021/03/31 03:59:57;;;;;;;24.45;16.30;;;;;;;5.95;59.54;101388.06;5074493;28;20040;-70
2021/03/31 04:02:23;;;;;;;19.38;13.80;;;;;;;5.94;58.12;101397.28;5090709;28;20103;-72
2021/03/31 04:04:49;;;;;;;18.55;12.75;;;;;;;6.05;59.27;101402.50;5091636;28;20035;-71
2021/03/31 04:07:15;;;;;;;19.60;13.18;;;;;;;6.24;58.86;101401.91;5081425;28;20025;-72
2021/03/31 04:09:42;;;;;;;20.20;13.70;;;;;;;6.39;57.96;101402.09;5070413;28;20024;-72
2021/03/31 04:12:09;;;;;;;18.10;13.23;;;;;;;6.07;58.93;101409.28;5070733;28;20036;-72
2021/03/31 04:14:38;;;;;;;20.02;13.75;;;;;;;6.29;59.20;101399.44;5070909;28;20070;-74
2021/03/31 04:17:06;;;;;;;22.05;14.32;;;;;;;6.14;59.90;101387.47;5071203;28;20490;-74
2021/03/31 04:19:34;;;;;;;18.35;12.70;;;;;;;6.58;58.56;101414.09;5071887;28;20028;-75
2021/03/31 04:21:59;;;;;;;16.60;12.27;;;;;;;6.55;58.90;101415.75;5070857;28;20038;-75
2021/03/31 04:24:25;;;;;;;16.40;12.20;;;;;;;6.54;59.62;101401.41;5069755;28;20021;-74
2021/03/31 04:26:52;;;;;;;19.48;13.27;;;;;;;6.37;59.91;101413.88;5071051;28;20035;-75
2021/03/31 04:29:18;;;;;;;21.83;13.90;;;;;;;6.39;59.74;101397.06;5070938;28;20032;-75
2021/03/31 04:31:44;;;;;;;22.60;14.20;;;;;;;6.51;59.83;101406.44;5070729;28;20107;-74
2021/03/31 04:34:11;;;;;;;16.55;12.00;;;;;;;6.41;60.68;101410.56;5071158;28;20025;-74
2021/03/31 04:36:36;;;;;;;15.90;11.40;;;;;;;6.35;60.59;101385.22;5070841;28;20032;-75
2021/03/31 04:39:05;;;;;;;16.00;11.70;;;;;;;6.61;60.62;101409.09;5069801;28;20025;-74
2021/03/31 04:41:31;;;;;;;17.20;12.15;;;;;;;6.39;60.28;101393.66;5070383;28;20039;-74
2021/03/31 04:43:56;;;;;;;14.13;11.00;;;;;;;6.68;59.51;101392.31;5070678;28;20032;-74
2021/03/31 04:46:22;;;;;;;14.73;11.57;;;;;;;6.61;59.28;101406.56;5070701;28;20107;-74
2021/03/31 04:48:47;;;;;;;13.35;11.05;;;;;;;6.63;59.65;101399.88;5072042;28;20046;-74
2021/03/31 04:51:13;;;;;;;14.55;11.55;;;;;;;6.91;63.84;101409.41;5070757;28;20020;-75
2021/03/31 04:53:38;;;;;;;18.92;12.73;;;;;;;7.52;63.61;101392.22;5072167;28;20036;-74
2021/03/31 04:56:06;;;;;;;16.40;12.65;;;;;;;6.80;59.38;101387.38;5071906;28;20028;-74
2021/03/31 04:58:31;;;;;;;21.67;13.32;;;;;;;7.04;59.02;101400.25;5071864;28;20093;-74
2021/03/31 05:00:58;;;;;;;19.20;13.20;;;;;;;7.12;57.78;101403.72;5071761;28;20024;-74
2021/03/31 05:03:24;;;;;;;18.55;13.65;;;;;;;7.14;58.06;101399.50;5070653;28;20086;-74
2021/03/31 05:05:49;;;;;;;15.68;12.10;;;;;;;7.06;57.67;101392.69;5071831;28;20489;-74
2021/03/31 05:08:15;;;;;;;13.18;10.30;;;;;;;7.13;57.23;101392.75;5071098;28;20025;-75
2021/03/31 05:10:40;;;;;;;15.88;11.43;;;;;;;7.14;57.32;101396.13;5070422;28;20024;-73
2021/03/31 05:13:06;;;;;;;13.80;10.20;;;;;;;7.14;57.96;101402.03;5070747;28;20028;-74
2021/03/31 05:15:31;;;;;;;14.65;10.85;;;;;;;7.10;57.99;101384.28;5071388;28;20469;-74
2021/03/31 05:17:57;;;;;;;13.52;10.13;;;;;;;7.21;57.99;101392.84;5071528;28;20089;-74
2021/03/31 05:20:22;;;;;;;12.60;10.10;;;;;;;7.60;56.61;101408.31;5071712;28;20031;-75
2021/03/31 05:22:48;;;;;;;14.57;11.20;;;;;;;7.61;56.36;101408.31;5070320;28;20151;-74
2021/03/31 05:25:13;;;;;;;16.60;11.23;;;;;;;7.83;56.43;101396.66;5070402;28;20638;-74
2021/03/31 05:27:39;;;;;;;15.05;11.90;;;;;;;8.31;55.12;101409.63;5070153;28;20033;-74
2021/03/31 05:30:09;;;;;;;14.07;10.90;;;;;;;7.89;55.77;101411.88;5069898;28;20040;-75
2021/03/31 05:32:35;;;;;;;14.05;10.85;;;;;;;8.38;54.31;101421.44;5071477;28;20036;-74
2021/03/31 05:35:01;;;;;;;16.23;12.15;;;;;;;8.60;54.26;101428.31;5071170;28;20489;-73
2021/03/31 05:37:27;;;;;;;14.85;11.57;;;;;;;8.64;53.81;101416.47;5070250;28;20035;-75
2021/03/31 05:39:52;;;;;;;15.18;11.60;;;;;;;8.77;53.59;101414.84;5070306;28;20411;-74
2021/03/31 05:42:19;;;;;;;15.00;10.95;;;;;;;8.85;53.49;101421.63;5070105;28;20039;-74
2021/03/31 05:44:44;;;;;;;12.18;10.48;;;;;;;8.86;53.54;101423.31;5070172;28;20145;-74
2021/03/31 05:47:15;;;;;;;12.68;10.23;;;;;;;9.13;53.64;101415.72;5070209;28;20428;-75
2021/03/31 05:49:41;;;;;;;13.30;10.05;;;;;;;9.41;51.63;101398.81;5070045;28;20021;-75
2021/03/31 05:52:10;;;;;;;13.68;11.02;;;;;;;9.37;52.68;101408.13;5070246;28;20024;-75
2021/03/31 05:54:36;;;;;;;14.25;10.88;;;;;;;9.31;52.06;101402.25;5070237;28;20032;-75
2021/03/31 05:57:02;;;;;;;13.38;10.23;;;;;;;9.50;50.89;101414.06;5071249;28;20106;-75
2021/03/31 05:59:28;;;;;;;12.73;10.27;;;;;;;9.44;50.73;101414.06;5069848;28;20028;-74
2021/03/31 06:01:53;;;;;;;12.60;10.57;;;;;;;9.35;51.40;101396.28;5071055;28;20021;-74
2021/03/31 06:04:19;;;;;;;17.13;10.90;;;;;;;10.39;48.53;101413.88;5071193;28;20028;-75
2021/03/31 06:06:44;;;;;;;15.10;10.70;;;;;;;9.59;50.46;101419.13;5069961;28;20025;-76
2021/03/31 06:09:10;;;;;;;13.57;10.30;;;;;;;10.02;50.33;101405.50;5069957;28;20025;-75
2021/03/31 06:11:51;;;;;;;13.55;10.63;;;;;;;10.58;48.91;101415.50;5070060;28;20020;-75
2021/03/31 06:14:35;;;;;;;13.48;9.73;;;;;;;10.08;49.84;101408.03;5074679;28;20116;-73
2021/03/31 06:17:18;;;;;;;12.55;9.90;;;;;;;9.93;49.29;101387.75;5073654;28;20478;-74
2021/03/31 06:19:45;;;;;;;12.80;9.85;;;;;;;9.91;49.67;101396.22;5074782;28;20029;-74
2021/03/31 06:25:18;;;;;;;14.35;11.15;;;;;;;10.60;48.49;101395.16;5074982;28;20438;-74
2021/03/31 06:27:52;;;;;;;13.30;10.02;;;;;;;10.11;49.10;101405.53;5073585;28;20049;-75
2021/03/31 06:30:25;;;;;;;17.25;10.25;;;;;;;10.43;49.33;101403.72;5073032;28;20048;-75
2021/03/31 06:32:52;;;;;;;12.63;9.63;;;;;;;10.20;48.91;101385.16;5073451;28;20016;-74
2021/03/31 06:35:28;;;;;;;13.10;9.55;;;;;;;10.69;47.28;101398.50;5073596;28;20081;-75
2021/03/31 06:38:07;;;;;;;13.15;9.40;;;;;;;10.69;48.66;101390.00;5073370;28;20410;-74
2021/03/31 06:40:46;;;;;;;11.93;9.27;;;;;;;10.10;48.75;101390.28;5073191;28;20509;-74
2021/03/31 06:43:22;;;;;;;14.10;9.98;;;;;;;10.50;47.61;101381.63;5074181;28;20047;-74
2021/03/31 06:45:55;;;;;;;11.50;9.45;;;;;;;10.79;47.28;101402.69;5072960;28;20409;-74
2021/03/31 06:48:26;;;;;;;10.50;9.32;;;;;;;10.97;47.21;101394.91;5074059;28;20490;-73
2021/03/31 06:50:51;;;;;;;12.63;9.35;;;;;;;10.86;47.08;101401.78;5074408;28;20027;-74
2021/03/31 06:53:26;;;;;;;11.05;9.00;;;;;;;10.40;46.81;101397.78;5074017;28;20029;-74
2021/03/31 06:56:00;;;;;;;11.82;10.20;;;;;;;10.90;47.67;101384.78;5073161;28;20074;-73
2021/03/31 06:58:26;;;;;;;14.52;10.70;;;;;;;10.75;46.26;101390.81;5072814;28;20445;-74
2021/03/31 07:00:52;;;;;;;13.23;9.93;;;;;;;11.78;45.03;101390.88;5074109;28;20036;-73
2021/03/31 07:03:18;;;;;;;13.15;10.02;;;;;;;10.96;47.01;101411.03;5072718;28;20036;-74
2021/03/31 07:05:44;;;;;;;13.45;10.07;;;;;;;11.83;44.05;101396.75;5073038;28;20543;-73
2021/03/31 07:08:12;;;;;;;14.23;9.90;;;;;;;11.99;44.75;101390.63;5072599;28;20036;-74
2021/03/31 07:10:49;;;;;;;12.20;10.05;;;;;;;10.76;46.09;101401.81;5072521;28;20667;-73
2021/03/31 07:13:33;;;;;;;13.57;10.30;;;;;;;11.84;44.19;101395.91;5072886;28;20490;-74
2021/03/31 07:16:01;;;;;;;13.75;10.30;;;;;;;10.67;47.54;101384.94;5073725;28;20025;-74
2021/03/31 07:18:27;;;;;;;15.63;10.50;;;;;;;11.04;47.13;101377.91;5073625;28;20040;-74
2021/03/31 07:20:54;;;;;;;12.40;10.02;;;;;;;10.34;48.46;101401.19;5073489;28;20029;-75
2021/03/31 07:23:24;;;;;;;12.70;10.23;;;;;;;10.68;47.54;101395.94;5073606;28;20032;-74
2021/03/31 07:25:52;;;;;;;12.88;9.93;;;;;;;11.02;46.23;101383.00;5072526;28;20036;-74
2021/03/31 07:28:26;;;;;;;12.95;10.40;;;;;;;10.62;47.81;101383.28;5072633;28;20422;-74
2021/03/31 07:30:53;;;;;;;12.48;10.30;;;;;;;10.72;46.84;101384.88;5073347;28;20518;-74
2021/03/31 07:33:25;;;;;;;11.02;9.45;;;;;;;11.85;45.19;101374.66;5072151;28;20055;-74
2021/03/31 07:35:52;;;;;;;11.60;9.23;;;;;;;11.71;44.55;101388.38;5072112;28;20116;-74
2021/03/31 07:38:23;;;;;;;13.40;10.25;;;;;;;11.84;44.02;101389.97;5073401;28;20043;-73
2021/03/31 07:40:50;;;;;;;14.65;10.15;;;;;;;11.57;46.15;101395.28;5073190;28;20127;-74
2021/03/31 07:43:27;;;;;;;12.73;10.30;;;;;;;12.55;43.41;101392.50;5072112;28;20583;-75
2021/03/31 07:46:01;;;;;;;11.98;9.57;;;;;;;12.34;43.78;101382.56;5073282;28;20029;-74
2021/03/31 07:48:28;;;;;;;16.08;11.45;;;;;;;11.71;44.00;101384.13;5073127;28;20178;-73
2021/03/31 07:50:54;;;;;;;11.20;9.43;;;;;;;11.57;42.62;101380.00;5073063;28;20025;-74
2021/03/31 07:53:23;;;;;;;14.45;11.15;;;;;;;12.09;44.05;101388.81;5071936;28;20493;-74
2021/03/31 07:55:52;;;;;;;11.55;9.82;;;;;;;11.44;44.96;101393.69;5073055;28;20064;-74
2021/03/31 07:58:30;;;;;;;11.07;9.55;;;;;;;12.25;45.11;101389.47;5071956;28;20028;-74
2021/03/31 08:01:08;;;;;;;9.15;7.40;;;;;;;11.62;43.22;101384.19;5071698;28;20421;-74
2021/03/31 08:03:36;;;;;;;10.98;8.82;;;;;;;11.59;42.91;101386.75;5071585;28;20498;-73
2021/03/31 08:06:09;;;;;;;9.63;8.35;;;;;;;11.25;44.26;101386.22;5071598;28;20024;-73
2021/03/31 08:08:56;;;;;;;11.13;8.98;;;;;;;11.07;45.93;101391.44;5072818;28;20024;-73
2021/03/31 08:11:40;;;;;;;11.38;8.52;;;;;;;11.44;45.57;101380.97;5072727;28;20032;-74
2021/03/31 08:14:06;;;;;;;9.75;8.52;;;;;;;12.75;40.86;101369.25;5071475;28;20109;-75
2021/03/31 08:16:38;;;;;;;18.85;12.45;;;;;;;12.63;40.77;101349.88;5072400;28;20028;-74
2021/03/31 08:19:07;;;;;;;9.98;8.48;;;;;;;12.79;41.78;101370.91;5072547;28;20103;-74
2021/03/31 08:21:33;;;;;;;9.13;7.53;;;;;;;13.75;37.60;101361.63;5071221;28;20119;-74
2021/03/31 08:24:02;;;;;;;10.88;7.15;;;;;;;12.56;39.18;101362.72;5071179;28;20032;-74
2021/03/31 08:26:33;;;;;;;12.18;7.50;;;;;;;13.51;37.65;101371.47;5072491;28;20051;-74
2021/03/31 08:29:01;;;;;;;8.32;7.03;;;;;;;12.54;38.65;101349.16;5072317;28;20025;-74
2021/03/31 08:31:29;;;;;;;13.85;9.10;;;;;;;13.10;37.10;101361.09;5070700;28;20053;-74
2021/03/31 08:33:55;;;;;;;18.75;11.70;;;;;;;13.87;36.61;101352.88;5071311;28;20031;-74
2021/03/31 08:36:21;;;;;;;15.27;9.85;;;;;;;14.02;36.68;101359.44;5070501;28;20470;-73
2021/03/31 08:38:54;;;;;;;19.10;12.73;;;;;;;13.41;37.28;101368.22;5071008;28;20031;-74
2021/03/31 08:41:22;;;;;;;11.40;7.75;;;;;;;13.51;37.83;101346.75;5072173;28;20029;-73
2021/03/31 08:43:48;;;;;;;12.93;9.75;;;;;;;13.68;36.97;101349.00;5071930;28;20033;-74
2021/03/31 08:46:28;;;;;;;8.48;6.80;;;;;;;12.63;38.45;101352.41;5070697;28;20036;-74
2021/03/31 08:48:53;;;;;;;7.53;6.72;;;;;;;13.07;38.52;101351.78;5070811;28;20020;-74
2021/03/31 08:51:19;;;;;;;11.82;9.00;;;;;;;12.29;39.79;101353.72;5071667;28;20411;-73
2021/03/31 08:53:45;;;;;;;10.30;7.47;;;;;;;12.00;39.44;101351.53;5072058;28;20037;-74
2021/03/31 08:56:21;;;;;;;9.90;7.75;;;;;;;12.77;38.70;101334.34;5070502;28;20416;-73
2021/03/31 08:58:50;;;;;;;7.88;6.40;;;;;;;12.75;38.70;101334.38;5070480;28;20082;-74
2021/03/31 09:01:27;;;;;;;11.13;7.82;;;;;;;12.82;38.76;101305.34;5070408;28;20055;-74
2021/03/31 09:04:08;;;;;;;8.73;7.05;;;;;;;12.28;40.61;101346.13;5070582;28;20398;-74
2021/03/31 09:06:37;;;;;;;10.35;8.70;;;;;;;12.95;38.98;101337.44;5071595;28;20048;-74
2021/03/31 09:09:03;;;;;;;13.57;8.90;;;;;;;12.83;40.23;101322.34;5071517;28;20078;-74
2021/03/31 09:11:30;;;;;;;14.02;10.98;;;;;;;12.34;41.04;101336.66;5070627;28;20463;-75
2021/03/31 09:13:55;;;;;;;10.18;7.82;;;;;;;12.35;40.29;101327.31;5070390;28;20044;-75
2021/03/31 09:16:21;;;;;;;11.10;7.78;;;;;;;12.79;39.63;101312.19;5070493;28;20020;-77
2021/03/31 09:18:47;;;;;;;9.57;7.35;;;;;;;14.81;37.52;101317.63;5070492;28;20024;-78
2021/03/31 09:21:13;;;;;;;9.02;7.57;;;;;;;13.08;38.85;101302.38;5071655;28;20577;-76
2021/03/31 09:23:45;;;;;;;9.85;7.53;;;;;;;13.79;37.67;101304.47;5070698;28;20036;-78
2021/03/31 09:26:10;;;;;;;9.77;7.25;;;;;;;13.15;38.18;101311.66;5070588;28;20554;-78
2021/03/31 09:28:36;;;;;;;8.68;7.25;;;;;;;13.02;38.12;101305.00;5070624;28;20016;-77
2021/03/31 09:31:20;;;;;;;9.23;8.00;;;;;;;13.94;37.25;101301.59;5070165;28;20110;-78
2021/03/31 09:33:48;;;;;;;8.57;7.07;;;;;;;15.36;35.20;101287.19;5070374;28;20029;-77
2021/03/31 09:36:14;;;;;;;9.25;7.38;;;;;;;14.67;35.98;101288.09;5070449;28;20032;-77
2021/03/31 09:38:41;;;;;;;13.63;9.20;;;;;;;14.89;35.71;101287.56;5070552;28;20093;-75
2021/03/31 09:41:07;;;;;;;9.90;7.95;;;;;;;16.23;33.51;101271.88;5070115;28;20028;-78
2021/03/31 09:43:34;;;;;;;7.93;6.80;;;;;;;14.68;35.74;101288.91;5071141;28;20054;-76
2021/03/31 09:46:00;;;;;;;8.32;6.72;;;;;;;15.30;34.92;101285.63;5070473;28;20070;-76
2021/03/31 09:48:27;;;;;;;9.63;6.78;;;;;;;14.14;36.14;101260.28;5070972;28;20037;-75
2021/03/31 09:50:53;;;;;;;9.60;7.22;;;;;;;13.18;37.41;101262.22;5070217;28;20528;-76
2021/03/31 09:53:25;;;;;;;7.85;6.55;;;;;;;14.68;35.26;101270.97;5071358;28;20405;-75
2021/03/31 09:55:51;;;;;;;;;;;;;;;13.98;36.77;101265.75;5070516;28;20033;-75
2021/03/31 09:58:26;;;;;;;8.52;6.20;;;;;;;15.98;33.57;101237.59;5071287;28;19962;-75
2021/03/31 10:00:52;;;;;;;8.23;6.50;;;;;;;15.32;34.33;101234.31;5070051;28;20124;-75
2021/03/31 10:03:19;;;;;;;7.93;5.95;;;;;;;14.07;35.17;101252.75;5071030;28;20064;-75
2021/03/31 10:05:44;;;;;;;8.63;6.00;;;;;;;15.87;32.83;101251.59;5070102;28;20127;-76
2021/03/31 10:08:12;;;;;;;7.90;6.13;;;;;;;14.90;33.98;101238.84;5071185;28;20052;-76
2021/03/31 10:10:41;;;;;;;6.82;5.82;;;;;;;13.63;35.76;101254.53;5071136;28;20544;-76
2021/03/31 10:13:08;;;;;;;7.65;5.82;;;;;;;13.90;35.51;101248.84;5071128;28;20407;-76
2021/03/31 10:15:33;;;;;;;6.72;5.45;;;;;;;13.80;36.72;101236.31;5069984;28;20027;-76
2021/03/31 10:17:59;;;;;;;8.57;6.18;;;;;;;14.33;35.21;101240.25;5070965;28;20029;-76
2021/03/31 10:20:30;;;;;;;7.68;6.07;;;;;;;14.81;34.13;101218.63;5071167;28;20029;-75
2021/03/31 10:22:55;;;;;;;8.95;6.88;;;;;;;13.33;35.89;101228.75;5069623;28;20037;-76
2021/03/31 10:25:25;;;;;;;8.90;6.45;;;;;;;14.50;34.47;101223.63;5070183;28;20082;-75
2021/03/31 10:27:51;;;;;;;8.20;6.78;;;;;;;14.46;35.26;101221.22;5070874;28;20029;-76
2021/03/31 10:30:30;;;;;;;12.43;7.65;;;;;;;16.75;31.66;101196.63;5069334;28;20046;-76
2021/03/31 10:32:57;;;;;;;8.75;6.03;;;;;;;16.43;30.60;101196.81;5069767;28;20460;-76
2021/03/31 10:36:00;;;;;;;10.90;6.45;;;;;;;17.10;30.56;101191.09;5070895;28;20078;-76
2021/03/31 10:38:34;;;;;;;6.97;5.60;;;;;;;16.23;30.89;101182.06;5070006;28;20060;-75
2021/03/31 10:54:07;;;;;;;7.88;6.07;;;;;;;16.34;30.47;101172.25;5070722;28;20032;-76
2021/03/31 10:56:35;;;;;;;10.13;5.82;;;;;;;16.81;29.77;101146.75;5070719;28;20055;-76
2021/03/31 10:59:01;;;;;;;7.32;4.97;;;;;;;16.88;29.16;101159.34;5070826;28;20524;-76
2021/03/31 11:01:26;;;;;;;6.47;4.93;;;;;;;17.65;28.98;101148.00;5074048;28;20541;-76
2021/03/31 11:03:52;;;;;;;6.00;5.15;;;;;;;17.31;28.87;101143.25;5074285;28;20166;-75
2021/03/31 11:06:17;;;;;;;7.63;5.47;;;;;;;18.61;28.77;101146.66;5072717;28;20027;-76
2021/03/31 11:08:44;;;;;;;6.90;5.40;;;;;;;18.49;28.29;101142.00;5072992;28;20055;-75
2021/03/31 11:11:10;;;;;;;7.57;5.07;;;;;;;17.41;28.82;101118.84;5073745;28;20528;-76
2021/03/31 11:13:36;;;;;;;7.72;5.47;;;;;;;18.23;27.79;101126.75;5072676;28;20033;-76
2021/03/31 11:16:06;;;;;;;8.85;5.05;;;;;;;17.94;28.28;101129.69;5072947;28;20115;-76
2021/03/31 11:26:28;;;;;;;7.72;5.95;;;;;;;16.79;29.01;101112.59;5074052;28;20035;-75
2021/03/31 11:28:53;;;;;;;6.47;4.68;;;;;;;17.01;28.67;101116.91;5072474;28;20488;-76
2021/03/31 11:31:19;;;;;;;5.60;4.82;;;;;;;18.56;27.04;101099.63;5072405;28;20052;-76
2021/03/31 11:33:44;;;;;;;8.25;5.15;;;;;;;18.37;26.48;101097.84;5072423;28;20490;-75
2021/03/31 11:36:10;;;;;;;7.18;4.65;;;;;;;17.90;27.88;101097.25;5072200;28;20078;-76
2021/03/31 11:38:36;;;;;;;7.68;5.20;;;;;;;17.53;28.65;101097.03;5072780;28;20116;-75
2021/03/31 11:41:02;;;;;;;7.05;5.10;;;;;;;18.47;27.55;101094.88;5073178;28;20456;-75
2021/03/31 11:43:27;;;;;;;7.05;5.20;;;;;;;16.13;30.43;101102.84;5073181;28;20210;-76
2021/03/31 11:45:52;;;;;;;8.15;5.18;;;;;;;16.88;28.50;101073.72;5072252;28;20082;-76
2021/03/31 11:48:18;;;;;;;7.78;5.47;;;;;;;18.37;27.81;101092.72;5072184;28;20089;-76
2021/03/31 11:50:44;;;;;;;6.93;5.30;;;;;;;18.07;28.00;101066.50;5072271;28;20056;-76